createdAt,value
2018-05-06T00:02:08.775Z,95051
2018-05-06T00:07:03.440Z,95050
2018-05-06T00:11:57.772Z,95039
2018-05-06T00:16:52.170Z,95030
2018-05-06T00:21:46.541Z,95026
2018-05-06T00:26:40.771Z,95029
2018-05-06T00:31:35.085Z,95024
2018-05-06T00:36:29.566Z,94999
2018-05-06T00:41:24.485Z,95029
2018-05-06T00:46:18.889Z,95027
2018-05-06T00:51:13.524Z,95023
2018-05-06T00:56:07.940Z,95032
2018-05-06T01:01:02.238Z,95021
2018-05-06T01:05:56.740Z,95026
2018-05-06T01:10:50.903Z,95023
2018-05-06T01:15:45.345Z,95027
2018-05-06T01:20:39.449Z,95021
2018-05-06T01:25:33.658Z,95012
2018-05-06T01:30:28.647Z,95013
2018-05-06T01:35:22.957Z,95015
2018-05-06T01:40:17.398Z,95013
2018-05-06T01:45:12.049Z,95002
2018-05-06T01:50:06.249Z,95005
2018-05-06T01:54:59.977Z,94988
2018-05-06T01:59:54.583Z,95000
2018-05-06T02:04:48.552Z,95004
2018-05-06T02:09:42.825Z,95006
2018-05-06T02:14:37.199Z,95010
2018-05-06T02:19:31.088Z,95009
2018-05-06T02:24:25.551Z,95008
2018-05-06T02:29:19.955Z,95007
2018-05-06T02:34:14.481Z,95004
2018-05-06T02:39:09.310Z,95004
2018-05-06T02:44:03.604Z,94995
2018-05-06T02:48:58.336Z,94995
2018-05-06T02:53:52.967Z,94990
2018-05-06T02:58:47.824Z,94990
2018-05-06T03:03:42.214Z,94995
2018-05-06T03:08:36.558Z,94996
2018-05-06T03:13:31.453Z,94986
2018-05-06T03:18:26.092Z,94998
2018-05-06T03:23:20.463Z,95002
2018-05-06T03:28:15.460Z,94993
2018-05-06T03:33:09.571Z,94993
2018-05-06T03:38:03.836Z,95002
2018-05-06T03:42:58.039Z,95000
2018-05-06T03:47:52.299Z,95015
2018-05-06T03:52:46.996Z,95015
2018-05-06T03:57:41.081Z,95018
2018-05-06T04:02:36.209Z,95016
2018-05-06T04:07:30.381Z,95014
2018-05-06T04:12:24.978Z,95019
2018-05-06T04:17:19.885Z,95013
2018-05-06T04:22:14.336Z,95022
2018-05-06T04:27:08.805Z,95027
2018-05-06T04:32:03.144Z,95035
2018-05-06T04:36:57.766Z,95036
2018-05-06T04:41:52.230Z,95033
2018-05-06T04:46:46.711Z,95033
2018-05-06T04:51:41.227Z,95038
2018-05-06T04:56:36.120Z,95041
2018-05-06T05:01:30.364Z,95043
2018-05-06T05:06:24.848Z,95051
2018-05-06T05:11:19.494Z,95048
2018-05-06T05:16:14.318Z,95049
2018-05-06T05:21:08.628Z,95054
2018-05-06T05:26:03.105Z,95053
2018-05-06T05:30:57.353Z,95057
2018-05-06T05:35:51.677Z,95054
2018-05-06T05:40:46.150Z,95055
2018-05-06T05:45:40.793Z,95060
2018-05-06T05:50:35.556Z,95073
2018-05-06T05:55:29.868Z,95069
2018-05-06T06:00:24.880Z,95070
2018-05-06T06:05:19.326Z,95071
2018-05-06T06:10:14.147Z,95063
2018-05-06T06:15:08.646Z,95063
2018-05-06T06:20:03.138Z,95060
2018-05-06T06:24:58.166Z,95065
2018-05-06T06:29:52.193Z,95069
2018-05-06T06:34:46.695Z,95067
2018-05-06T06:39:41.281Z,95062
2018-05-06T06:44:35.740Z,95065
2018-05-06T06:49:30.079Z,95065
2018-05-06T06:54:24.980Z,95065
2018-05-06T06:59:19.375Z,95068
2018-05-06T07:04:14.279Z,95072
2018-05-06T07:09:08.837Z,95064
2018-05-06T07:14:03.190Z,95075
2018-05-06T07:18:57.455Z,95075
2018-05-06T07:23:52.340Z,95074
2018-05-06T07:28:46.672Z,95072
2018-05-06T07:33:41.201Z,95079
2018-05-06T07:38:35.815Z,95083
2018-05-06T07:43:30.804Z,95068
2018-05-06T07:48:25.202Z,95076
2018-05-06T07:53:19.926Z,95081
2018-05-06T07:58:14.238Z,95074
2018-05-06T08:03:08.758Z,95062
2018-05-06T08:08:03.159Z,95073
2018-05-06T08:12:58.089Z,95070
2018-05-06T08:17:52.462Z,95067
2018-05-06T08:22:47.306Z,95069
2018-05-06T08:27:41.445Z,95066
2018-05-06T08:32:36.051Z,95067
2018-05-06T08:37:31.110Z,95067
2018-05-06T08:42:25.946Z,95060
2018-05-06T08:47:20.814Z,95052
2018-05-06T08:52:15.503Z,95047
2018-05-06T08:57:10.240Z,95045
2018-05-06T09:02:04.813Z,95038
2018-05-06T09:06:59.733Z,95037
2018-05-06T09:11:54.266Z,95029
2018-05-06T09:16:48.890Z,95022
2018-05-06T09:21:43.628Z,95022
2018-05-06T09:26:38.400Z,95015
2018-05-06T09:31:33.096Z,94998
2018-05-06T09:36:28.421Z,94992
2018-05-06T09:41:22.858Z,94984
2018-05-06T09:46:17.842Z,94977
2018-05-06T09:51:12.964Z,94969
2018-05-06T09:56:08.109Z,94972
2018-05-06T10:01:02.551Z,94966
2018-05-06T10:05:57.672Z,94972
2018-05-06T10:10:51.929Z,94966
2018-05-06T10:15:46.556Z,94953
2018-05-06T10:20:41.651Z,94957
2018-05-06T10:25:36.588Z,94945
2018-05-06T10:30:31.338Z,94939
2018-05-06T10:35:25.734Z,94934
2018-05-06T10:40:20.092Z,94934
2018-05-06T10:45:14.698Z,94931
2018-05-06T10:50:09.761Z,94936
2018-05-06T10:55:04.367Z,94932
2018-05-06T10:59:58.954Z,94921
2018-05-06T11:04:53.944Z,94924
2018-05-06T11:09:48.176Z,94917
2018-05-06T11:14:42.711Z,94914
2018-05-06T11:19:37.333Z,94907
2018-05-06T11:24:32.231Z,94901
2018-05-06T11:29:26.733Z,94909
2018-05-06T11:34:21.864Z,94901
2018-05-06T11:39:16.354Z,94916
2018-05-06T11:44:11.385Z,94903
2018-05-06T11:49:05.794Z,94912
2018-05-06T11:54:00.012Z,94903
2018-05-06T11:58:54.516Z,94896
2018-05-06T12:03:49.635Z,94905
2018-05-06T12:08:44.256Z,94895
2018-05-06T12:13:39.053Z,94891
2018-05-06T12:18:34.274Z,94895
2018-05-06T12:23:29.060Z,94894
2018-05-06T12:28:23.466Z,94885
2018-05-06T12:33:18.015Z,94881
2018-05-06T12:38:12.880Z,94872
2018-05-06T12:43:07.184Z,94870
2018-05-06T12:48:01.723Z,94874
2018-05-06T12:52:56.239Z,94863
2018-05-06T12:57:50.959Z,94863
2018-05-06T13:02:45.837Z,94857
2018-05-06T13:07:39.812Z,94860
2018-05-06T13:12:34.746Z,94844
2018-05-06T13:17:29.299Z,94848
2018-05-06T13:22:23.766Z,94848
2018-05-06T13:27:18.226Z,94847
2018-05-06T13:32:12.650Z,94849
2018-05-06T13:37:07.194Z,94853
2018-05-06T13:42:01.702Z,94839
2018-05-06T13:46:56.333Z,94837
2018-05-06T13:51:51.619Z,94832
2018-05-06T13:56:46.036Z,94836
2018-05-06T14:01:39.878Z,94829
2018-05-06T14:06:34.037Z,94835
2018-05-06T14:11:28.612Z,94827
2018-05-06T14:16:23.265Z,94831
2018-05-06T14:21:17.883Z,94829
2018-05-06T14:26:12.749Z,94834
2018-05-06T14:31:07.567Z,94837
2018-05-06T14:36:02.203Z,94846
2018-05-06T14:40:56.820Z,94854
2018-05-06T14:45:51.581Z,94848
2018-05-06T14:50:46.195Z,94850
2018-05-06T14:55:40.233Z,94860
2018-05-06T15:00:34.383Z,94863
2018-05-06T15:05:28.527Z,94852
2018-05-06T15:10:23.130Z,94849
2018-05-06T15:15:17.625Z,94853
2018-05-06T15:20:12.335Z,94857
2018-05-06T15:25:06.283Z,94856
2018-05-06T15:30:00.759Z,94867
2018-05-06T15:34:55.100Z,94871
2018-05-06T15:39:49.827Z,94863
2018-05-06T15:44:44.212Z,94862
2018-05-06T15:49:39.007Z,94854
2018-05-06T15:54:33.704Z,94860
2018-05-06T15:59:28.250Z,94851
2018-05-06T16:04:22.812Z,94847
2018-05-06T16:09:17.149Z,94854
2018-05-06T16:14:11.391Z,94879
2018-05-06T16:19:05.946Z,94894
2018-05-06T16:24:00.593Z,94905
2018-05-06T16:28:54.927Z,94918
2018-05-06T16:33:49.715Z,94922
2018-05-06T16:38:43.826Z,94918
2018-05-06T16:43:38.178Z,94937
2018-05-06T16:48:32.285Z,94964
2018-05-06T16:53:26.856Z,94967
2018-05-06T16:58:21.319Z,94968
2018-05-06T17:03:15.361Z,94969
2018-05-06T17:08:09.596Z,94987
2018-05-06T17:13:03.703Z,95064
2018-05-06T17:17:57.736Z,95125
2018-05-06T17:22:51.090Z,95128
2018-05-06T17:27:45.192Z,95151
2018-05-06T17:32:39.688Z,95158
2018-05-06T17:37:34.026Z,95159
2018-05-06T17:42:28.273Z,95154
2018-05-06T17:47:22.693Z,95142
2018-05-06T17:52:17.144Z,95138
2018-05-06T17:57:11.841Z,95136
2018-05-06T18:02:06.090Z,95142
2018-05-06T18:07:00.185Z,95137
2018-05-06T18:11:54.401Z,95131
2018-05-06T18:16:48.754Z,95132
2018-05-06T18:21:42.989Z,95140
2018-05-06T18:26:37.376Z,95139
2018-05-06T18:31:32.203Z,95117
2018-05-06T18:36:26.621Z,95127
2018-05-06T18:41:20.923Z,95112
2018-05-06T18:46:15.255Z,95123
2018-05-06T18:51:09.639Z,95112
2018-05-06T18:56:04.105Z,95103
2018-05-06T19:00:58.999Z,95104
2018-05-06T19:05:53.579Z,95111
2018-05-06T19:10:48.286Z,95117
2018-05-06T19:15:42.491Z,95111
2018-05-06T19:20:36.893Z,95128
2018-05-06T19:25:31.574Z,95133
2018-05-06T19:30:25.904Z,95148
2018-05-06T19:35:20.301Z,95160
2018-05-06T19:40:14.930Z,95156
2018-05-06T19:45:09.703Z,95155
2018-05-06T19:50:03.637Z,95148
2018-05-06T19:54:58.501Z,95152
2018-05-06T19:59:53.097Z,95153
2018-05-06T20:04:47.474Z,95156
2018-05-06T20:09:41.745Z,95151
2018-05-06T20:14:36.366Z,95140
2018-05-06T20:19:30.687Z,95154
2018-05-06T20:24:25.192Z,95169
2018-05-06T20:29:19.393Z,95164
2018-05-06T20:34:13.839Z,95155
2018-05-06T20:39:08.466Z,95170
2018-05-06T20:44:03.023Z,95182
2018-05-06T20:48:57.745Z,95188
2018-05-06T20:53:52.150Z,95192
2018-05-06T20:58:46.383Z,95191
2018-05-06T21:03:41.204Z,95218
2018-05-06T21:08:36.104Z,95184
2018-05-06T21:13:30.508Z,95184
2018-05-06T21:18:24.706Z,95177
2018-05-06T21:23:19.340Z,95156
2018-05-06T21:28:13.808Z,95167
2018-05-06T21:33:08.457Z,95176
2018-05-06T21:38:02.708Z,95157
2018-05-06T21:42:57.318Z,95156
2018-05-06T21:47:51.662Z,95175
2018-05-06T21:52:46.376Z,95192
2018-05-06T21:57:39.096Z,95188
2018-05-06T22:02:33.907Z,95185
2018-05-06T22:07:28.858Z,95178
2018-05-06T22:12:23.362Z,95175
2018-05-06T22:17:17.757Z,95163
2018-05-06T22:22:12.365Z,95162
2018-05-06T22:27:06.637Z,95152
2018-05-06T22:32:01.337Z,95150
2018-05-06T22:36:55.882Z,95157
2018-05-06T22:41:50.400Z,95146
2018-05-06T22:46:44.871Z,95144
2018-05-06T22:51:39.392Z,95128
2018-05-06T22:56:33.734Z,95120
2018-05-06T23:01:28.111Z,95121
2018-05-06T23:06:23.080Z,95132
2018-05-06T23:11:17.753Z,95116
2018-05-06T23:16:12.100Z,95123
2018-05-06T23:21:06.558Z,95132
2018-05-06T23:26:00.589Z,95128
2018-05-06T23:30:55.287Z,95138
2018-05-06T23:35:49.372Z,95142
2018-05-06T23:40:44.199Z,95137
2018-05-06T23:45:38.339Z,95144
2018-05-06T23:50:32.624Z,95146
2018-05-06T23:55:27.044Z,95148
